aviador You're here:

YTEF Decoded Metar

TELFER AIRPORT in _UNIDENTIFIED
Report Time2018-06-23 13:00:00
UTC Time2018-06-23 13:50:38
Flight Rules vfr VFR
Wind120° at 10 kt
W.Decomp.*RWY 12: 10.0 kt HW 0.3 kt LCW
W.Rank120° ranks 4
Current wind is below 120° avg. (11.4)
Visibility9999 m
Phenomena:N/A
Clouds:N/A
Expected CloudBase > 6,000 ft AGL from Temp-Dew spread
CeilingNone
Temp13°C (ISA -0)
Dew Point-2°C (36% RH)
AAT7.2°C
QNH1024 hPa
Density Alt669 ft
Elevation971 ft
Report Wrong Elevation
Raw Report
YTEF 231300Z AUTO 12010KT 9999 // NCD 13/M02 Q1024=

Extra information for YTEF:More info

Metar Taf Metar & Taf Last 4 Metars F.Rules Stats Wind Profile Meteogram Temp Stats Airport Information Weather charts Add Link Nearby VenuesMetar ALERT Operation Metar Decoded Social comments